Time;durP1;ratioP1;P1;durP2;ratioP2;P2;SDS_P1;SDS_P2;PMS_P1;PMS_P2;Temp;Humidity;BMP_temperature;BMP_pressure;BME280_temperature;BME280_humidity;BME280_pressure;Samples;Min_cycle;Max_cycle;Signal;HPM_P1;HPM_P2
2022/06/25 00:01:26;;;;;;;;;;;20.10;56.30;;;;;;5143541;27;19946;-46
2022/06/25 00:03:52;;;;;;;;;;;19.80;55.00;;;;;;5128654;27;19927;-45
2022/06/25 00:06:18;;;;;;;;;;;19.60;54.50;;;;;;5125218;27;19923;-47
2022/06/25 00:08:47;;;;;;;;;;;20.00;58.90;;;;;;5143806;27;19923;-48
2022/06/25 00:12:31;;;;;;;;;;;20.70;62.80;;;;;;5149040;27;19927;-48
2022/06/25 00:14:02;;;;;;;;;;;21.30;62.60;;;;;;5142692;27;20013;-49
2022/06/25 00:16:27;;;;;;;;;;;21.40;60.00;;;;;;5142254;27;20170;-43
2022/06/25 00:18:53;;;;;;;;;;;20.40;58.30;;;;;;5148586;27;19979;-45
2022/06/25 00:21:19;;;;;;;;;;;20.00;56.90;;;;;;5143224;27;19930;-45
2022/06/25 00:23:45;;;;;;;;;;;19.90;55.20;;;;;;5148813;27;19933;-47
2022/06/25 00:26:10;;;;;;;;;;;19.70;54.70;;;;;;5143596;27;20344;-45
2022/06/25 00:28:36;;;;;;;;;;;20.00;57.40;;;;;;5143566;27;19923;-45
2022/06/25 00:31:02;;;;;;;;;;;20.60;62.20;;;;;;5148754;27;19979;-46
2022/06/25 00:33:28;;;;;;;;;;;21.30;62.70;;;;;;5122650;27;19934;-45
2022/06/25 00:35:53;;;;;;;;;;;21.50;60.70;;;;;;5142181;27;20204;-48
2022/06/25 00:38:19;;;;;;;;;;;20.60;58.30;;;;;;5148607;27;20279;-44
2022/06/25 00:40:45;;;;;;;;;;;20.00;56.80;;;;;;5142912;27;19968;-43
2022/06/25 00:43:11;;;;;;;;;;;19.90;55.20;;;;;;5146558;27;19938;-52
2022/06/25 00:45:36;;;;;;;;;;;19.80;54.70;;;;;;5145293;27;19923;-49
2022/06/25 00:48:02;;;;;;;;;;;20.10;58.50;;;;;;5142948;27;19924;-48
2022/06/25 00:50:28;;;;;;;;;;;20.80;62.20;;;;;;5148018;27;19933;-50
2022/06/25 00:52:54;;;;;;;;;;;21.50;61.80;;;;;;5141245;27;19923;-44
2022/06/25 00:55:21;;;;;;;;;;;21.30;59.20;;;;;;5141979;27;20005;-45
2022/06/25 00:57:46;;;;;;;;;;;20.30;57.60;;;;;;5147735;27;19929;-46
2022/06/25 01:00:14;;;;;;;;;;;19.90;56.20;;;;;;5122501;27;19923;-45
2022/06/25 01:02:40;;;;;;;;;;;20.00;54.80;;;;;;5143277;27;19929;-53
2022/06/25 01:05:06;;;;;;;;;;;19.80;54.30;;;;;;5129126;27;20018;-48
2022/06/25 01:07:33;;;;;;;;;;;20.30;60.30;;;;;;5142463;27;20018;-47
2022/06/25 01:09:59;;;;;;;;;;;21.00;62.10;;;;;;5128187;27;20232;-46
2022/06/25 01:12:24;;;;;;;;;;;21.70;61.30;;;;;;5141477;27;19923;-47
2022/06/25 01:15:03;;;;;;;;;;;20.90;59.00;;;;;;5142229;27;20367;-45
2022/06/25 01:17:29;;;;;;;;;;;20.30;57.00;;;;;;5147960;27;19923;-47
2022/06/25 01:19:54;;;;;;;;;;;19.90;55.80;;;;;;5142219;27;20003;-46
2022/06/25 01:22:20;;;;;;;;;;;19.90;54.60;;;;;;5142388;27;19923;-45
2022/06/25 01:24:46;;;;;;;;;;;19.90;56.20;;;;;;5147667;27;19976;-47
2022/06/25 01:27:12;;;;;;;;;;;20.50;61.40;;;;;;5141900;27;19934;-46
2022/06/25 01:29:38;;;;;;;;;;;21.20;62.00;;;;;;5143728;27;20007;-56
2022/06/25 01:32:04;;;;;;;;;;;21.50;60.00;;;;;;5144479;27;19934;-48
2022/06/25 01:34:30;;;;;;;;;;;20.70;57.90;;;;;;5141974;27;20557;-45
2022/06/25 01:36:56;;;;;;;;;;;20.20;56.20;;;;;;5147436;27;19923;-44
2022/06/25 01:39:21;;;;;;;;;;;20.00;55.30;;;;;;5141971;27;20291;-44
2022/06/25 01:41:47;;;;;;;;;;;19.80;55.60;;;;;;5142244;27;19923;-45
2022/06/25 01:44:13;;;;;;;;;;;20.40;61.10;;;;;;5147476;27;19934;-50
2022/06/25 01:46:39;;;;;;;;;;;21.20;61.90;;;;;;5140364;27;19927;-47
2022/06/25 01:49:04;;;;;;;;;;;21.70;60.00;;;;;;5142029;27;19972;-58
2022/06/25 01:51:30;;;;;;;;;;;20.60;58.10;;;;;;5146038;27;20382;-46
2022/06/25 01:53:56;;;;;;;;;;;20.20;56.50;;;;;;5141615;27;20290;-44
2022/06/25 01:56:22;;;;;;;;;;;19.90;55.40;;;;;;5151338;27;20021;-45
2022/06/25 01:58:47;;;;;;;;;;;19.80;54.50;;;;;;5148746;27;20372;-45
2022/06/25 02:01:13;;;;;;;;;;;20.30;60.30;;;;;;5148808;27;19975;-46
2022/06/25 02:03:39;;;;;;;;;;;20.90;62.10;;;;;;5154098;27;19934;-48
2022/06/25 02:06:05;;;;;;;;;;;21.70;60.80;;;;;;5146581;27;19923;-47
2022/06/25 02:08:32;;;;;;;;;;;20.80;58.20;;;;;;5148054;27;19945;-48
2022/06/25 02:10:57;;;;;;;;;;;20.30;56.60;;;;;;5153727;27;19931;-48
2022/06/25 02:13:23;;;;;;;;;;;20.10;55.50;;;;;;5148538;27;20336;-45
2022/06/25 02:15:49;;;;;;;;;;;19.90;54.60;;;;;;5154305;27;20386;-44
2022/06/25 02:18:15;;;;;;;;;;;19.90;53.60;;;;;;5148965;27;19923;-48
2022/06/25 02:20:41;;;;;;;;;;;20.30;59.30;;;;;;5148560;27;20378;-45
2022/06/25 02:23:07;;;;;;;;;;;21.00;61.30;;;;;;5152641;27;19923;-50
2022/06/25 02:25:32;;;;;;;;;;;21.60;60.80;;;;;;5147413;27;19946;-46
2022/06/25 02:27:58;;;;;;;;;;;21.20;58.30;;;;;;5147977;27;19931;-45
2022/06/25 02:30:24;;;;;;;;;;;20.30;56.90;;;;;;5153663;27;20334;-44
2022/06/25 02:32:50;;;;;;;;;;;20.00;55.60;;;;;;5148376;27;19927;-47
2022/06/25 02:35:16;;;;;;;;;;;19.80;54.50;;;;;;5153907;27;19929;-45
2022/06/25 02:37:41;;;;;;;;;;;19.80;55.10;;;;;;5148354;27;20421;-45
2022/06/25 02:40:07;;;;;;;;;;;20.30;60.80;;;;;;5148263;27;19923;-46
2022/06/25 02:42:36;;;;;;;;;;;21.10;61.50;;;;;;5151701;27;19923;-47
2022/06/25 02:45:03;;;;;;;;;;;21.60;59.70;;;;;;5147658;27;19966;-46
2022/06/25 02:47:29;;;;;;;;;;;20.70;58.20;;;;;;5148139;27;20499;-45
2022/06/25 02:49:54;;;;;;;;;;;20.20;56.60;;;;;;5153707;27;19923;-46
2022/06/25 02:52:20;;;;;;;;;;;20.00;55.00;;;;;;5148242;27;19923;-47
2022/06/25 02:54:46;;;;;;;;;;;19.80;53.80;;;;;;5152655;27;19931;-54
2022/06/25 02:59:56;;;;;;;;;;;20.60;61.30;;;;;;5147093;27;19933;-46
2022/06/25 03:02:21;;;;;;;;;;;21.40;60.90;;;;;;5148301;27;19923;-51
2022/06/25 03:04:47;;;;;;;;;;;21.80;60.40;;;;;;5148213;27;19938;-55
2022/06/25 03:07:13;;;;;;;;;;;21.80;60.10;;;;;;5145599;27;20370;-55
2022/06/25 03:09:39;;;;;;;;;;;21.90;59.60;;;;;;5150104;27;19927;-55
2022/06/25 03:12:05;;;;;;;;;;;21.80;59.70;;;;;;5126422;27;20023;-57
2022/06/25 03:14:30;;;;;;;;;;;21.80;59.50;;;;;;5144917;27;20474;-56
2022/06/25 03:16:56;;;;;;;;;;;21.80;59.30;;;;;;5150426;27;19932;-55
2022/06/25 03:19:22;;;;;;;;;;;21.80;59.20;;;;;;5142930;27;19923;-56
2022/06/25 03:21:48;;;;;;;;;;;21.90;59.10;;;;;;5149271;27;20013;-57
2022/06/25 03:24:13;;;;;;;;;;;22.00;58.90;;;;;;5144301;27;19946;-56
2022/06/25 03:26:39;;;;;;;;;;;22.00;58.70;;;;;;5144528;27;20017;-53
2022/06/25 03:29:05;;;;;;;;;;;22.20;58.30;;;;;;5150094;27;20346;-56
2022/06/25 03:31:31;;;;;;;;;;;22.20;58.20;;;;;;5144556;27;20060;-54
2022/06/25 03:33:57;;;;;;;;;;;22.10;58.10;;;;;;5144356;27;19965;-55
2022/06/25 03:36:22;;;;;;;;;;;22.00;58.10;;;;;;5148388;27;19976;-55
2022/06/25 03:38:48;;;;;;;;;;;22.20;57.80;;;;;;5123395;27;19923;-53
2022/06/25 03:41:32;;;;;;;;;;;22.10;57.60;;;;;;5147494;27;19956;-55
2022/06/25 03:44:02;;;;;;;;;;;22.10;57.80;;;;;;5149480;27;19929;-57
2022/06/25 03:46:29;;;;;;;;;;;22.10;57.70;;;;;;5144247;27;19923;-54
2022/06/25 03:48:55;;;;;;;;;;;22.20;57.70;;;;;;5149251;27;19971;-55
2022/06/25 03:51:20;;;;;;;;;;;22.20;57.60;;;;;;5144308;27;20414;-55
2022/06/25 03:53:46;;;;;;;;;;;22.30;57.20;;;;;;5144022;27;19972;-52
2022/06/25 03:56:12;;;;;;;;;;;22.20;57.20;;;;;;5147604;27;20013;-56
2022/06/25 03:58:38;;;;;;;;;;;21.90;57.50;;;;;;5143491;27;19940;-52
2022/06/25 04:01:03;;;;;;;;;;;21.30;57.20;;;;;;5143535;27;19950;-54
2022/06/25 04:03:30;;;;;;;;;;;21.40;57.40;;;;;;5149285;27;19973;-53
2022/06/25 04:05:56;;;;;;;;;;;21.50;58.50;;;;;;5143744;27;20018;-56
2022/06/25 04:08:22;;;;;;;;;;;21.70;58.60;;;;;;5146427;27;20036;-59
2022/06/25 04:10:48;;;;;;;;;;;21.70;58.30;;;;;;5147008;27;19931;-56
2022/06/25 04:13:14;;;;;;;;;;;21.70;57.90;;;;;;5124393;27;20370;-58
2022/06/25 04:15:40;;;;;;;;;;;21.70;57.70;;;;;;5147820;27;20453;-59
2022/06/25 04:18:05;;;;;;;;;;;21.70;57.60;;;;;;5143649;27;20007;-59
2022/06/25 04:20:32;;;;;;;;;;;21.80;57.10;;;;;;5144048;27;20022;-57
2022/06/25 04:22:58;;;;;;;;;;;21.60;55.40;;;;;;5149338;27;19927;-56
2022/06/25 04:25:23;;;;;;;;;;;21.30;53.40;;;;;;5143895;27;19970;-55
2022/06/25 04:30:34;;;;;;;;;;;21.30;54.50;;;;;;5148991;27;19927;-56
2022/06/25 04:33:00;;;;;;;;;;;21.60;55.80;;;;;;5142569;27;20408;-58
2022/06/25 04:35:25;;;;;;;;;;;21.70;56.30;;;;;;5127746;27;19931;-56
2022/06/25 04:37:51;;;;;;;;;;;21.80;56.20;;;;;;5145325;27;19923;-53
2022/06/25 04:40:18;;;;;;;;;;;21.70;56.10;;;;;;5144065;27;20422;-56
2022/06/25 04:42:44;;;;;;;;;;;21.70;56.10;;;;;;5148905;27;19923;-58
2022/06/25 04:45:10;;;;;;;;;;;21.80;56.00;;;;;;5145244;27;19965;-52
2022/06/25 04:47:36;;;;;;;;;;;21.80;55.90;;;;;;5145431;27;20394;-49
2022/06/25 04:50:02;;;;;;;;;;;21.90;55.80;;;;;;5147584;27;19927;-50
2022/06/25 04:52:28;;;;;;;;;;;21.90;55.70;;;;;;5143044;27;19931;-57
2022/06/25 04:54:53;;;;;;;;;;;21.90;55.60;;;;;;5144437;27;19923;-57
2022/06/25 04:57:19;;;;;;;;;;;21.90;55.60;;;;;;5148025;27;19927;-52
2022/06/25 04:59:45;;;;;;;;;;;21.90;55.50;;;;;;5143784;27;19924;-57
2022/06/25 05:02:11;;;;;;;;;;;21.80;55.90;;;;;;5148556;27;20271;-51
2022/06/25 05:04:36;;;;;;;;;;;21.90;55.80;;;;;;5143587;27;19934;-55
2022/06/25 05:07:02;;;;;;;;;;;21.90;55.80;;;;;;5144017;27;19923;-53
2022/06/25 05:09:28;;;;;;;;;;;22.00;55.80;;;;;;5146578;27;19977;-50
2022/06/25 05:11:54;;;;;;;;;;;22.00;55.80;;;;;;5124464;27;19923;-52
2022/06/25 05:14:20;;;;;;;;;;;22.10;55.90;;;;;;5143584;27;19926;-52
2022/06/25 05:16:46;;;;;;;;;;;22.00;55.80;;;;;;5148323;27;19951;-50
2022/06/25 05:19:12;;;;;;;;;;;22.00;56.10;;;;;;5142902;27;19923;-50
2022/06/25 05:21:38;;;;;;;;;;;22.00;56.10;;;;;;5148261;27;19934;-49
2022/06/25 05:24:04;;;;;;;;;;;22.10;55.80;;;;;;5144724;27;19968;-49
2022/06/25 05:26:30;;;;;;;;;;;22.10;56.00;;;;;;5142240;27;20406;-51
2022/06/25 05:28:56;;;;;;;;;;;22.20;55.80;;;;;;5126816;27;20018;-52
2022/06/25 05:31:22;;;;;;;;;;;22.10;55.80;;;;;;5142226;27;19934;-50
2022/06/25 05:33:49;;;;;;;;;;;22.10;55.80;;;;;;5143501;27;20108;-48
2022/06/25 05:36:15;;;;;;;;;;;22.10;55.70;;;;;;5148160;27;20348;-54
2022/06/25 05:38:40;;;;;;;;;;;22.00;55.90;;;;;;5143120;27;19927;-48
2022/06/25 05:41:08;;;;;;;;;;;22.00;56.00;;;;;;5148041;27;19996;-49
2022/06/25 05:43:34;;;;;;;;;;;22.10;56.00;;;;;;5144214;27;20345;-49
2022/06/25 05:46:00;;;;;;;;;;;22.10;56.00;;;;;;5141614;27;19969;-48
2022/06/25 05:48:25;;;;;;;;;;;22.20;55.70;;;;;;5147193;27;19923;-48
2022/06/25 05:50:51;;;;;;;;;;;22.20;55.50;;;;;;5143049;27;19931;-46
2022/06/25 05:53:17;;;;;;;;;;;22.00;56.80;;;;;;5141674;27;20178;-47
2022/06/25 05:55:43;;;;;;;;;;;20.30;58.30;;;;;;5147517;27;19926;-45
2022/06/25 05:58:08;;;;;;;;;;;19.80;59.70;;;;;;5142994;27;19930;-46
2022/06/25 06:00:34;;;;;;;;;;;20.20;61.70;;;;;;5146991;27;19995;-53
2022/06/25 06:03:00;;;;;;;;;;;20.70;65.10;;;;;;5144829;27;20394;-51
2022/06/25 06:05:26;;;;;;;;;;;21.00;64.20;;;;;;5142502;27;19988;-49
2022/06/25 06:07:51;;;;;;;;;;;21.50;61.80;;;;;;5147169;27;20112;-49
2022/06/25 06:10:17;;;;;;;;;;;21.60;60.20;;;;;;5143052;27;20469;-48
2022/06/25 06:12:44;;;;;;;;;;;21.70;58.80;;;;;;5143440;27;19977;-49
2022/06/25 06:15:10;;;;;;;;;;;21.80;58.20;;;;;;5147853;27;20017;-51
2022/06/25 06:17:35;;;;;;;;;;;21.80;57.60;;;;;;5124099;27;20057;-54
2022/06/25 06:20:01;;;;;;;;;;;21.90;57.20;;;;;;5143378;27;19927;-56
2022/06/25 06:22:27;;;;;;;;;;;22.00;57.00;;;;;;5143798;27;19927;-55
2022/06/25 06:24:53;;;;;;;;;;;22.00;56.70;;;;;;5140530;27;19933;-51
2022/06/25 06:27:18;;;;;;;;;;;22.00;56.50;;;;;;5146854;27;20298;-54
2022/06/25 06:29:44;;;;;;;;;;;21.80;54.90;;;;;;5141495;27;20294;-54
2022/06/25 06:32:10;;;;;;;;;;;21.50;53.30;;;;;;5141729;27;19923;-54
2022/06/25 06:34:36;;;;;;;;;;;21.50;52.60;;;;;;5128675;27;19923;-51
2022/06/25 06:37:02;;;;;;;;;;;21.70;54.10;;;;;;5122870;27;19935;-53
2022/06/25 06:39:27;;;;;;;;;;;21.80;55.40;;;;;;5141288;27;20017;-54
2022/06/25 06:41:53;;;;;;;;;;;21.90;55.70;;;;;;5146005;27;19927;-53
2022/06/25 06:44:19;;;;;;;;;;;21.90;55.70;;;;;;5144954;27;20007;-54
2022/06/25 06:46:45;;;;;;;;;;;22.00;55.70;;;;;;5150600;27;20389;-56
2022/06/25 06:49:11;;;;;;;;;;;22.00;55.80;;;;;;5145419;27;20055;-51
2022/06/25 06:51:37;;;;;;;;;;;22.10;55.70;;;;;;5145213;27;19976;-51
2022/06/25 06:54:02;;;;;;;;;;;22.20;55.50;;;;;;5151131;27;20267;-53
2022/06/25 06:56:28;;;;;;;;;;;22.10;55.60;;;;;;5145173;27;20424;-50
2022/06/25 06:58:54;;;;;;;;;;;22.10;55.80;;;;;;5124868;27;19931;-50
2022/06/25 07:01:20;;;;;;;;;;;22.10;55.80;;;;;;5149090;27;19934;-53
2022/06/25 07:03:46;;;;;;;;;;;22.20;55.40;;;;;;5144714;27;20359;-52
2022/06/25 07:06:12;;;;;;;;;;;22.20;55.30;;;;;;5150260;27;20010;-49
2022/06/25 07:08:37;;;;;;;;;;;22.30;55.30;;;;;;5145462;27;19965;-47
2022/06/25 07:11:28;;;;;;;;;;;21.30;57.10;;;;;;5145163;27;19955;-48
2022/06/25 07:13:49;;;;;;;;;;;20.40;58.90;;;;;;5147062;27;19929;-52
2022/06/25 07:16:15;;;;;;;;;;;19.90;59.80;;;;;;5144836;27;19935;-49
2022/06/25 07:18:40;;;;;;;;;;;20.00;60.80;;;;;;5143006;27;19979;-48
2022/06/25 07:21:06;;;;;;;;;;;20.80;63.70;;;;;;5149314;27;20387;-49
2022/06/25 07:23:32;;;;;;;;;;;21.10;63.80;;;;;;5144185;27;20294;-50
2022/06/25 07:25:58;;;;;;;;;;;21.40;61.80;;;;;;5144520;27;19997;-49
2022/06/25 07:28:23;;;;;;;;;;;21.70;60.30;;;;;;5131549;27;19930;-49
2022/06/25 07:30:49;;;;;;;;;;;21.70;59.00;;;;;;5144747;27;19931;-48
2022/06/25 07:33:15;;;;;;;;;;;21.80;58.10;;;;;;5149725;27;19927;-48
2022/06/25 07:35:41;;;;;;;;;;;22.00;57.30;;;;;;5142899;27;19927;-49
2022/06/25 07:38:06;;;;;;;;;;;22.00;56.90;;;;;;5142917;27;20397;-47
2022/06/25 07:40:32;;;;;;;;;;;22.10;56.60;;;;;;5149425;27;19923;-50
2022/06/25 07:42:58;;;;;;;;;;;22.10;56.30;;;;;;5144118;27;19982;-47
2022/06/25 07:45:24;;;;;;;;;;;22.10;56.10;;;;;;5144376;27;19953;-48
2022/06/25 07:47:50;;;;;;;;;;;22.20;56.00;;;;;;5149584;27;19927;-48
2022/06/25 07:53:00;;;;;;;;;;;22.30;55.60;;;;;;5143369;27;19939;-51
2022/06/25 07:55:25;;;;;;;;;;;22.30;55.20;;;;;;5147025;27;20366;-48
2022/06/25 07:57:51;;;;;;;;;;;22.30;55.00;;;;;;5143728;27;19975;-47
2022/06/25 08:00:17;;;;;;;;;;;22.20;55.10;;;;;;5149083;27;19927;-48
2022/06/25 08:02:43;;;;;;;;;;;22.20;55.20;;;;;;5143866;27;19930;-48
2022/06/25 08:05:09;;;;;;;;;;;22.30;54.80;;;;;;5144054;27;19977;-48
2022/06/25 08:07:34;;;;;;;;;;;22.30;54.60;;;;;;5149701;27;19927;-49
2022/06/25 08:10:00;;;;;;;;;;;22.30;55.00;;;;;;5143840;27;20015;-47
2022/06/25 08:12:26;;;;;;;;;;;21.10;57.00;;;;;;5142618;27;19927;-55
2022/06/25 08:14:52;;;;;;;;;;;19.90;59.30;;;;;;5148309;27;19927;-49
2022/06/25 08:17:18;;;;;;;;;;;19.80;59.10;;;;;;5143225;27;19943;-44
2022/06/25 08:19:44;;;;;;;;;;;20.60;63.10;;;;;;5148631;27;19923;-45
2022/06/25 08:22:09;;;;;;;;;;;21.10;63.20;;;;;;5143499;27;19923;-44
2022/06/25 08:24:35;;;;;;;;;;;21.50;61.40;;;;;;5143274;27;19971;-44
2022/06/25 08:27:01;;;;;;;;;;;21.80;59.40;;;;;;5148826;27;19927;-45
2022/06/25 08:29:27;;;;;;;;;;;21.90;58.10;;;;;;5143062;27;19927;-45
2022/06/25 08:31:53;;;;;;;;;;;22.00;57.30;;;;;;5141326;27;20198;-46
2022/06/25 08:34:19;;;;;;;;;;;22.00;56.10;;;;;;5129763;27;19927;-45
2022/06/25 08:36:45;;;;;;;;;;;21.70;53.80;;;;;;5142899;27;19927;-46
2022/06/25 08:39:12;;;;;;;;;;;21.60;52.50;;;;;;5147857;27;21203;-46
2022/06/25 08:41:38;;;;;;;;;;;21.70;52.30;;;;;;5143235;27;20418;-44
2022/06/25 08:44:04;;;;;;;;;;;22.00;54.10;;;;;;5143294;27;20022;-46
2022/06/25 08:46:30;;;;;;;;;;;22.10;54.20;;;;;;5148359;27;20018;-45
2022/06/25 08:48:56;;;;;;;;;;;22.10;54.50;;;;;;5123046;27;20357;-48
2022/06/25 08:51:22;;;;;;;;;;;22.10;54.40;;;;;;5122665;27;19933;-46
2022/06/25 08:53:48;;;;;;;;;;;22.20;54.40;;;;;;5147861;27;20010;-45
2022/06/25 08:56:14;;;;;;;;;;;22.30;54.50;;;;;;5142652;27;20422;-45
2022/06/25 08:58:43;;;;;;;;;;;22.30;54.30;;;;;;5146224;27;19966;-56
2022/06/25 09:01:09;;;;;;;;;;;22.30;54.20;;;;;;5147018;27;19933;-44
2022/06/25 09:03:35;;;;;;;;;;;22.30;54.00;;;;;;5143173;27;19923;-51
2022/06/25 09:06:11;;;;;;;;;;;22.30;55.50;;;;;;5147276;27;19927;-48
2022/06/25 09:08:36;;;;;;;;;;;20.70;57.80;;;;;;5105903;27;19931;-50
2022/06/25 09:11:02;;;;;;;;;;;20.00;59.00;;;;;;5142758;27;20235;-46
2022/06/25 09:13:28;;;;;;;;;;;19.80;59.10;;;;;;5148002;27;20727;-46
2022/06/25 09:15:54;;;;;;;;;;;20.70;63.20;;;;;;5142570;27;19945;-49
2022/06/25 09:18:20;;;;;;;;;;;21.20;64.00;;;;;;5142432;27;20185;-47
2022/06/25 09:21:04;;;;;;;;;;;21.50;62.20;;;;;;5148180;27;19962;-45
2022/06/25 09:23:30;;;;;;;;;;;21.80;60.30;;;;;;5142131;27;20382;-46
2022/06/25 09:26:00;;;;;;;;;;;22.00;58.40;;;;;;5122075;27;20281;-51
2022/06/25 09:28:32;;;;;;;;;;;22.10;57.40;;;;;;5146568;27;19970;-46
2022/06/25 09:30:58;;;;;;;;;;;22.20;56.60;;;;;;5141837;27;19927;-46
2022/06/25 09:33:24;;;;;;;;;;;22.30;56.00;;;;;;5128912;27;19935;-46
2022/06/25 09:35:50;;;;;;;;;;;22.30;55.50;;;;;;5142765;27;19934;-55
2022/06/25 09:38:16;;;;;;;;;;;21.60;56.50;;;;;;5143035;27;19923;-48
2022/06/25 09:40:57;;;;;;;;;;;20.30;59.10;;;;;;5147907;27;19929;-52
2022/06/25 09:43:24;;;;;;;;;;;19.80;59.70;;;;;;5124150;27;20451;-46
2022/06/25 09:45:53;;;;;;;;;;;20.70;62.40;;;;;;5143076;27;19971;-46
2022/06/25 09:48:23;;;;;;;;;;;21.20;62.90;;;;;;5147575;27;19927;-48
2022/06/25 09:51:07;;;;;;;;;;;21.70;60.80;;;;;;5142488;27;20066;-46
2022/06/25 09:53:33;;;;;;;;;;;21.90;58.80;;;;;;5142639;27;19923;-45
2022/06/25 09:56:00;;;;;;;;;;;22.00;57.60;;;;;;5147624;27;19923;-45
2022/06/25 09:58:26;;;;;;;;;;;22.10;56.70;;;;;;5142765;27;19923;-44
2022/06/25 10:00:52;;;;;;;;;;;22.20;56.20;;;;;;5142529;27;19970;-46
2022/06/25 10:03:18;;;;;;;;;;;22.30;55.60;;;;;;5145900;27;19927;-46
2022/06/25 10:05:44;;;;;;;;;;;22.30;55.10;;;;;;5122987;27;20525;-48
2022/06/25 10:08:11;;;;;;;;;;;22.30;55.50;;;;;;5147384;27;19923;-47
2022/06/25 10:10:38;;;;;;;;;;;20.80;57.70;;;;;;5143181;27;20046;-47
2022/06/25 10:13:04;;;;;;;;;;;20.00;59.40;;;;;;5143212;27;19930;-45
2022/06/25 10:15:30;;;;;;;;;;;20.30;59.40;;;;;;5147733;27;20294;-45
2022/06/25 10:17:55;;;;;;;;;;;20.90;62.30;;;;;;5146582;27;20395;-44
2022/06/25 10:20:21;;;;;;;;;;;21.40;61.50;;;;;;5145652;27;19950;-47
2022/06/25 10:22:48;;;;;;;;;;;21.80;59.60;;;;;;5150275;27;20059;-47
2022/06/25 10:25:14;;;;;;;;;;;21.90;58.10;;;;;;5146072;27;21256;-44
2022/06/25 10:27:43;;;;;;;;;;;22.10;57.00;;;;;;5150590;27;19927;-56
2022/06/25 10:30:09;;;;;;;;;;;22.20;56.30;;;;;;5130984;27;19927;-47
2022/06/25 10:32:45;;;;;;;;;;;22.20;55.70;;;;;;5146605;27;19946;-46
2022/06/25 10:35:31;;;;;;;;;;;22.30;55.00;;;;;;5152484;27;19926;-44
2022/06/25 10:38:00;;;;;;;;;;;22.30;54.70;;;;;;5151928;27;19930;-44
2022/06/25 10:40:26;;;;;;;;;;;22.30;53.70;;;;;;5149696;27;19923;-45
2022/06/25 10:43:01;;;;;;;;;;;21.80;51.70;;;;;;5152537;27;19930;-45
2022/06/25 10:45:30;;;;;;;;;;;21.70;50.30;;;;;;5150764;27;19923;-44
2022/06/25 10:47:59;;;;;;;;;;;21.90;50.50;;;;;;5150770;27;20006;-44
2022/06/25 10:50:31;;;;;;;;;;;22.00;52.00;;;;;;5132901;27;19923;-47
2022/06/25 10:53:03;;;;;;;;;;;22.20;52.90;;;;;;5151198;27;20009;-46
2022/06/25 10:55:29;;;;;;;;;;;22.30;53.10;;;;;;5150420;27;19922;-46
2022/06/25 10:58:10;;;;;;;;;;;22.30;52.90;;;;;;5151869;27;19946;-45
2022/06/25 11:00:55;;;;;;;;;;;22.30;52.90;;;;;;5150465;27;20286;-45
2022/06/25 11:03:27;;;;;;;;;;;22.30;52.70;;;;;;5132046;27;19923;-44
2022/06/25 11:05:53;;;;;;;;;;;22.30;52.40;;;;;;5148239;27;20437;-44
2022/06/25 11:08:18;;;;;;;;;;;22.40;52.10;;;;;;5150655;27;19931;-47
2022/06/25 11:10:44;;;;;;;;;;;22.40;52.00;;;;;;5145614;27;20339;-53
2022/06/25 11:13:10;;;;;;;;;;;21.80;53.20;;;;;;5150501;27;19927;-53
2022/06/25 11:15:39;;;;;;;;;;;20.50;55.80;;;;;;5144855;27;19929;-53
2022/06/25 11:18:23;;;;;;;;;;;20.20;56.80;;;;;;5127581;27;19923;-58
2022/06/25 11:20:49;;;;;;;;;;;20.00;56.80;;;;;;5132580;27;19927;-45
2022/06/25 11:23:15;;;;;;;;;;;20.70;59.60;;;;;;5132721;27;19930;-46
2022/06/25 11:29:05;;;;;;;;;;;21.80;57.40;;;;;;5150618;27;20381;-47
2022/06/25 11:31:23;;;;;;;;;;;21.90;56.20;;;;;;5141571;27;19949;-45
2022/06/25 11:33:50;;;;;;;;;;;22.00;55.20;;;;;;5128264;27;19967;-49
2022/06/25 11:36:16;;;;;;;;;;;22.20;54.70;;;;;;5150252;27;20279;-48
2022/06/25 11:38:42;;;;;;;;;;;22.30;54.10;;;;;;5147342;27;19930;-44
2022/06/25 11:41:26;;;;;;;;;;;22.30;53.70;;;;;;5150499;27;19953;-44
2022/06/25 11:43:52;;;;;;;;;;;22.40;53.20;;;;;;5150280;27;19931;-45
2022/06/25 11:46:19;;;;;;;;;;;22.30;53.40;;;;;;5126581;27;20386;-44
2022/06/25 11:48:48;;;;;;;;;;;22.40;53.00;;;;;;5149949;27;20505;-47
2022/06/25 11:51:14;;;;;;;;;;;22.40;52.60;;;;;;5144810;27;19923;-54
2022/06/25 11:53:40;;;;;;;;;;;21.90;52.80;;;;;;5123546;27;20522;-48
2022/06/25 11:56:06;;;;;;;;;;;20.50;55.50;;;;;;5148818;27;20366;-51
2022/06/25 11:58:33;;;;;;;;;;;20.00;56.50;;;;;;5143917;27;19937;-50
2022/06/25 12:00:59;;;;;;;;;;;20.00;56.90;;;;;;5146665;27;20701;-46
2022/06/25 12:03:25;;;;;;;;;;;20.70;58.70;;;;;;5149286;27;20013;-48
2022/06/25 12:05:52;;;;;;;;;;;21.30;58.60;;;;;;5143948;27;20022;-47
2022/06/25 12:08:18;;;;;;;;;;;21.70;57.10;;;;;;5130081;27;19923;-54
2022/06/25 12:10:45;;;;;;;;;;;21.90;55.80;;;;;;5140082;27;19948;-52
2022/06/25 12:13:14;;;;;;;;;;;22.00;54.90;;;;;;5142612;27;20093;-47
2022/06/25 12:15:40;;;;;;;;;;;22.10;54.30;;;;;;5149080;27;19923;-48
2022/06/25 12:18:06;;;;;;;;;;;22.20;53.90;;;;;;5143439;27;20462;-48
2022/06/25 12:20:32;;;;;;;;;;;22.30;53.40;;;;;;5143475;27;19923;-48
2022/06/25 12:22:58;;;;;;;;;;;22.30;53.20;;;;;;5148664;27;20381;-46
2022/06/25 12:25:25;;;;;;;;;;;22.30;52.90;;;;;;5125186;27;19927;-46
2022/06/25 12:27:50;;;;;;;;;;;22.30;52.70;;;;;;5143429;27;20396;-51
2022/06/25 12:30:35;;;;;;;;;;;22.40;52.30;;;;;;5146724;27;20056;-54
2022/06/25 12:33:04;;;;;;;;;;;22.10;52.30;;;;;;5142518;27;19929;-51
2022/06/25 12:35:30;;;;;;;;;;;20.30;55.50;;;;;;5144834;27;19967;-54
2022/06/25 12:38:09;;;;;;;;;;;19.80;58.10;;;;;;5147377;27;20864;-49
2022/06/25 12:40:41;;;;;;;;;;;21.20;57.10;;;;;;5142910;27;19927;-46
2022/06/25 12:43:07;;;;;;;;;;;21.80;55.50;;;;;;5148444;27;20343;-52
2022/06/25 12:45:33;;;;;;;;;;;22.00;54.00;;;;;;5144060;27;20056;-49
2022/06/25 12:47:59;;;;;;;;;;;21.70;52.10;;;;;;5141748;27;19923;-48
2022/06/25 12:50:26;;;;;;;;;;;21.50;50.20;;;;;;5147380;27;20435;-49
2022/06/25 12:52:52;;;;;;;;;;;21.70;49.20;;;;;;5142627;27;19931;-49
2022/06/25 12:55:19;;;;;;;;;;;21.90;50.90;;;;;;5142801;27;20021;-48
2022/06/25 12:57:44;;;;;;;;;;;22.00;51.90;;;;;;5129770;27;19945;-48
2022/06/25 13:00:17;;;;;;;;;;;22.20;52.40;;;;;;5142626;27;19923;-46
2022/06/25 13:02:43;;;;;;;;;;;22.30;52.00;;;;;;5142810;27;19972;-46
2022/06/25 13:05:09;;;;;;;;;;;22.30;51.70;;;;;;5147678;27;19923;-47
2022/06/25 13:07:35;;;;;;;;;;;22.30;51.50;;;;;;5140473;27;20021;-47
2022/06/25 13:10:00;;;;;;;;;;;22.30;51.20;;;;;;5147454;27;19927;-50
2022/06/25 13:12:28;;;;;;;;;;;22.30;50.80;;;;;;5142467;27;19923;-51
2022/06/25 13:14:54;;;;;;;;;;;21.30;52.60;;;;;;5142711;27;20929;-50
2022/06/25 13:17:20;;;;;;;;;;;20.10;55.30;;;;;;5148230;27;20378;-48
2022/06/25 13:19:45;;;;;;;;;;;19.80;55.60;;;;;;5123587;27;19938;-47
2022/06/25 13:22:11;;;;;;;;;;;19.80;56.80;;;;;;5142256;27;20082;-46
2022/06/25 13:24:37;;;;;;;;;;;21.00;57.00;;;;;;5146403;27;20047;-46
2022/06/25 13:27:03;;;;;;;;;;;21.60;56.00;;;;;;5140772;27;19923;-46
2022/06/25 13:29:29;;;;;;;;;;;22.00;54.80;;;;;;5147298;27;19930;-46
2022/06/25 13:31:57;;;;;;;;;;;22.10;53.80;;;;;;5123422;27;19927;-46
2022/06/25 13:34:23;;;;;;;;;;;22.20;53.10;;;;;;5142117;27;20343;-45
2022/06/25 13:36:49;;;;;;;;;;;22.30;52.60;;;;;;5147884;27;20064;-45
2022/06/25 13:39:15;;;;;;;;;;;22.30;52.60;;;;;;5142178;27;19926;-45
2022/06/25 13:41:40;;;;;;;;;;;22.30;52.50;;;;;;5141986;27;20430;-46
2022/06/25 13:44:09;;;;;;;;;;;22.30;52.40;;;;;;5145316;27;20018;-50
2022/06/25 13:46:35;;;;;;;;;;;22.30;52.00;;;;;;5141501;27;19927;-45
2022/06/25 13:49:01;;;;;;;;;;;22.30;52.00;;;;;;5144232;27;19984;-52
2022/06/25 13:51:27;;;;;;;;;;;22.40;51.80;;;;;;5144700;27;19954;-47
2022/06/25 13:53:53;;;;;;;;;;;22.00;51.90;;;;;;5123509;27;20021;-47
2022/06/25 13:56:19;;;;;;;;;;;20.30;55.40;;;;;;5147399;27;19931;-48
2022/06/25 13:58:45;;;;;;;;;;;19.80;56.10;;;;;;5141936;27;19953;-45
2022/06/25 14:01:11;;;;;;;;;;;20.70;57.00;;;;;;5140669;27;19927;-46
2022/06/25 14:03:37;;;;;;;;;;;21.50;55.50;;;;;;5145967;27;19929;-47
2022/06/25 14:06:03;;;;;;;;;;;21.80;54.20;;;;;;5122202;27;19927;-45
2022/06/25 14:08:29;;;;;;;;;;;22.10;53.40;;;;;;5141895;27;19934;-50
2022/06/25 14:10:55;;;;;;;;;;;22.20;52.90;;;;;;5147597;27;19927;-45
2022/06/25 14:13:21;;;;;;;;;;;22.30;52.60;;;;;;5141804;27;19934;-47
2022/06/25 14:15:46;;;;;;;;;;;22.30;52.30;;;;;;5147493;27;19930;-46
2022/06/25 14:18:12;;;;;;;;;;;22.30;52.10;;;;;;5142019;27;19967;-48
2022/06/25 14:20:38;;;;;;;;;;;22.40;52.00;;;;;;5139565;27;19927;-47
2022/06/25 14:23:04;;;;;;;;;;;22.40;51.70;;;;;;5146407;27;19943;-49
2022/06/25 14:25:30;;;;;;;;;;;22.50;51.20;;;;;;5141268;27;20021;-48